N576LM LEMD-LEPA
Flight info
| Callsign | N576LM |
|---|---|
| Flight time | 0h 57m |
| Altitude | 26000 |
| Route | NANDO T257 FENXE/N0446F320 T257 LASPO/N0443F260 M871 GODOX |
| Aircraft | C25C/M-SDE2E3FGHRWXY/LB1 |
Departure
| Time | 2026-05-06 18:21 |
|---|---|
| Airport | Adolfo Suárez Madrid–Barajas Airport (LEMD) |
Arrival
| Time | 2026-05-06 19:18 |
|---|---|
| Airport | Palma de Mallorca Airport (LEPA) |
| Time | Latitude | Longitude | Altitude | Speed | Heading |
|---|---|---|---|---|---|
| 2026-05-06 17:55 | 40.45713 | -3.57393 | 1950 ft | 0 kts | 225° |
| 2026-05-06 18:09 | 40.45675 | -3.57425 | 1964 ft | 11 kts | 178° |
| 2026-05-06 18:09 | 40.45621 | -3.57367 | 1964 ft | 10 kts | 135° |
| 2026-05-06 18:09 | 40.45582 | -3.57307 | 1964 ft | 8 kts | 96° |
| 2026-05-06 18:10 | 40.45596 | -3.57233 | 1965 ft | 8 kts | 71° |
| 2026-05-06 18:10 | 40.45642 | -3.57161 | 1965 ft | 12 kts | 44° |
| 2026-05-06 18:10 | 40.45714 | -3.57068 | 1965 ft | 16 kts | 45° |
| 2026-05-06 18:10 | 40.45802 | -3.56954 | 1964 ft | 20 kts | 45° |
| 2026-05-06 18:11 | 40.45828 | -3.56848 | 1965 ft | 20 kts | 124° |
| 2026-05-06 18:11 | 40.45853 | -3.56750 | 1965 ft | 7 kts | 2° |
| 2026-05-06 18:11 | 40.45859 | -3.56750 | 1965 ft | 0 kts | 2° |
| 2026-05-06 18:11 | 40.45921 | -3.56751 | 1965 ft | 20 kts | 0° |
| 2026-05-06 18:12 | 40.46105 | -3.56752 | 1965 ft | 27 kts | 360° |
| 2026-05-06 18:12 | 40.46218 | -3.56680 | 1964 ft | 16 kts | 86° |
| 2026-05-06 18:12 | 40.46298 | -3.56597 | 1965 ft | 19 kts | 2° |
| 2026-05-06 18:12 | 40.46445 | -3.56587 | 1966 ft | 24 kts | 3° |
| 2026-05-06 18:13 | 40.46628 | -3.56572 | 1967 ft | 28 kts | 4° |
| 2026-05-06 18:13 | 40.46765 | -3.56561 | 1968 ft | 31 kts | 4° |
| 2026-05-06 18:13 | 40.47069 | -3.56570 | 1975 ft | 30 kts | 340° |
| 2026-05-06 18:13 | 40.47229 | -3.56711 | 1978 ft | 25 kts | 322° |
| 2026-05-06 18:14 | 40.47322 | -3.56794 | 1980 ft | 23 kts | 329° |
| 2026-05-06 18:14 | 40.47446 | -3.56921 | 1984 ft | 19 kts | 320° |
| 2026-05-06 18:14 | 40.47538 | -3.57025 | 1987 ft | 17 kts | 321° |
| 2026-05-06 18:14 | 40.47641 | -3.57124 | 1991 ft | 21 kts | 322° |
| 2026-05-06 18:15 | 40.47777 | -3.57266 | 1995 ft | 28 kts | 322° |
| 2026-05-06 18:15 | 40.47974 | -3.57465 | 1997 ft | 38 kts | 322° |
| 2026-05-06 18:15 | 40.48184 | -3.57679 | 1990 ft | 43 kts | 322° |
| 2026-05-06 18:15 | 40.48437 | -3.57920 | 1986 ft | 40 kts | 328° |
| 2026-05-06 18:16 | 40.48655 | -3.58051 | 1997 ft | 28 kts | 1° |
| 2026-05-06 18:16 | 40.48768 | -3.58049 | 1997 ft | 26 kts | 359° |
| 2026-05-06 18:16 | 40.48857 | -3.57943 | 1993 ft | 17 kts | 92° |
| 2026-05-06 18:16 | 40.48859 | -3.57767 | 1987 ft | 21 kts | 89° |
| 2026-05-06 18:17 | 40.48860 | -3.57556 | 1983 ft | 25 kts | 90° |
| 2026-05-06 18:17 | 40.48859 | -3.57290 | 1978 ft | 29 kts | 89° |
| 2026-05-06 18:17 | 40.48861 | -3.57008 | 1973 ft | 35 kts | 90° |
| 2026-05-06 18:17 | 40.48862 | -3.56616 | 1966 ft | 41 kts | 90° |
| 2026-05-06 18:18 | 40.48862 | -3.56365 | 1959 ft | 25 kts | 90° |
| 2026-05-06 18:18 | 40.48943 | -3.56243 | 1955 ft | 20 kts | 359° |
| 2026-05-06 18:18 | 40.49137 | -3.56246 | 1955 ft | 35 kts | 359° |
| 2026-05-06 18:18 | 40.49438 | -3.56247 | 1955 ft | 45 kts | 360° |
| 2026-05-06 18:19 | 40.49738 | -3.56249 | 1955 ft | 41 kts | 359° |
| 2026-05-06 18:19 | 40.49911 | -3.56248 | 1955 ft | 12 kts | 24° |
| 2026-05-06 18:19 | 40.49939 | -3.56195 | 1954 ft | 12 kts | 86° |
| 2026-05-06 18:19 | 40.49947 | -3.56033 | 1952 ft | 8 kts | 69° |
| 2026-05-06 18:20 | 40.49948 | -3.56028 | 1952 ft | 0 kts | 69° |
| 2026-05-06 18:20 | 40.49979 | -3.55963 | 1953 ft | 17 kts | 45° |
| 2026-05-06 18:20 | 40.50137 | -3.55923 | 1954 ft | 26 kts | 359° |
| 2026-05-06 18:20 | 40.50634 | -3.55925 | 1959 ft | 117 kts | 360° |
| 2026-05-06 18:21 | 40.51721 | -3.55912 | 2367 ft | 176 kts | 1° |
| 2026-05-06 18:21 | 40.52901 | -3.55838 | 3943 ft | 169 kts | 4° |
| 2026-05-06 18:21 | 40.54236 | -3.55700 | 4720 ft | 196 kts | 11° |
| 2026-05-06 18:21 | 40.55592 | -3.55151 | 5340 ft | 223 kts | 20° |
| 2026-05-06 18:22 | 40.57112 | -3.54566 | 6512 ft | 223 kts | 14° |
| 2026-05-06 18:22 | 40.58640 | -3.54085 | 7727 ft | 223 kts | 15° |
| 2026-05-06 18:22 | 40.59604 | -3.53584 | 8487 ft | 222 kts | 34° |
| 2026-05-06 18:22 | 40.60585 | -3.52044 | 9682 ft | 219 kts | 66° |
| 2026-05-06 18:23 | 40.60801 | -3.50085 | 10756 ft | 217 kts | 100° |
| 2026-05-06 18:23 | 40.60227 | -3.48237 | 11839 ft | 215 kts | 122° |
| 2026-05-06 18:23 | 40.59437 | -3.46511 | 12942 ft | 215 kts | 122° |
| 2026-05-06 18:23 | 40.58623 | -3.44741 | 13652 ft | 235 kts | 123° |
| 2026-05-06 18:24 | 40.57665 | -3.42709 | 14249 ft | 256 kts | 122° |
| 2026-05-06 18:24 | 40.56745 | -3.40691 | 15171 ft | 260 kts | 123° |
| 2026-05-06 18:24 | 40.55836 | -3.38720 | 15980 ft | 268 kts | 123° |
| 2026-05-06 18:24 | 40.54806 | -3.36487 | 16371 ft | 295 kts | 123° |
| 2026-05-06 18:25 | 40.53657 | -3.34003 | 16676 ft | 323 kts | 123° |
| 2026-05-06 18:25 | 40.52422 | -3.31324 | 16902 ft | 351 kts | 123° |
| 2026-05-06 18:25 | 40.51134 | -3.28517 | 17393 ft | 366 kts | 123° |
| 2026-05-06 18:25 | 40.49800 | -3.25645 | 18265 ft | 371 kts | 123° |
| 2026-05-06 18:26 | 40.48474 | -3.22782 | 18977 ft | 377 kts | 123° |
| 2026-05-06 18:26 | 40.47108 | -3.19812 | 19759 ft | 383 kts | 123° |
| 2026-05-06 18:26 | 40.45692 | -3.16769 | 20550 ft | 388 kts | 124° |
| 2026-05-06 18:26 | 40.44299 | -3.13779 | 21332 ft | 394 kts | 123° |
| 2026-05-06 18:27 | 40.42884 | -3.10711 | 22134 ft | 400 kts | 124° |
| 2026-05-06 18:27 | 40.41398 | -3.07524 | 22934 ft | 406 kts | 124° |
| 2026-05-06 18:27 | 40.39924 | -3.04366 | 23859 ft | 404 kts | 124° |
| 2026-05-06 18:27 | 40.38490 | -3.01264 | 24757 ft | 402 kts | 124° |
| 2026-05-06 18:28 | 40.37415 | -2.98964 | 25363 ft | 401 kts | 124° |
| 2026-05-06 18:28 | 40.35984 | -2.95921 | 26163 ft | 400 kts | 125° |
| 2026-05-06 18:28 | 40.34545 | -2.92826 | 26976 ft | 398 kts | 124° |
| 2026-05-06 18:28 | 40.33094 | -2.89708 | 27783 ft | 397 kts | 125° |
| 2026-05-06 18:29 | 40.31625 | -2.86594 | 28604 ft | 396 kts | 126° |
| 2026-05-06 18:29 | 40.30188 | -2.83527 | 29412 ft | 395 kts | 125° |
| 2026-05-06 18:29 | 40.28727 | -2.80393 | 30181 ft | 394 kts | 126° |
| 2026-05-06 18:29 | 40.27325 | -2.77418 | 30803 ft | 393 kts | 126° |
| 2026-05-06 18:30 | 40.25893 | -2.74371 | 31384 ft | 393 kts | 126° |
| 2026-05-06 18:30 | 40.24470 | -2.71346 | 31844 ft | 396 kts | 127° |
| 2026-05-06 18:30 | 40.22999 | -2.68234 | 31909 ft | 409 kts | 127° |
| 2026-05-06 18:30 | 40.21456 | -2.64965 | 31913 ft | 423 kts | 126° |
| 2026-05-06 18:31 | 40.18297 | -2.58255 | 31925 ft | 437 kts | 127° |
| 2026-05-06 18:31 | 40.14993 | -2.51278 | 31927 ft | 447 kts | 126° |
| 2026-05-06 18:32 | 40.11665 | -2.44262 | 31923 ft | 455 kts | 127° |
| 2026-05-06 18:32 | 40.08248 | -2.37070 | 31924 ft | 465 kts | 127° |
| 2026-05-06 18:33 | 40.04767 | -2.29763 | 31928 ft | 474 kts | 127° |
| 2026-05-06 18:33 | 40.01218 | -2.22327 | 31925 ft | 476 kts | 127° |
| 2026-05-06 18:34 | 39.97781 | -2.14864 | 31921 ft | 478 kts | 123° |
| 2026-05-06 18:34 | 39.94580 | -2.07250 | 31920 ft | 473 kts | 125° |
| 2026-05-06 18:35 | 39.91911 | -2.00993 | 31911 ft | 471 kts | 123° |
| 2026-05-06 18:35 | 39.88764 | -1.93544 | 31912 ft | 468 kts | 125° |
| 2026-05-06 18:36 | 39.85591 | -1.86094 | 31919 ft | 467 kts | 124° |
| 2026-05-06 18:36 | 39.82519 | -1.78915 | 31918 ft | 465 kts | 125° |
| 2026-05-06 18:37 | 39.79346 | -1.71466 | 31923 ft | 465 kts | 125° |
| 2026-05-06 18:37 | 39.76206 | -1.64062 | 31928 ft | 464 kts | 125° |
| 2026-05-06 18:38 | 39.73313 | -1.57153 | 31933 ft | 464 kts | 125° |
| 2026-05-06 18:38 | 39.70203 | -1.49680 | 31944 ft | 464 kts | 125° |
| 2026-05-06 18:39 | 39.66815 | -1.42461 | 31951 ft | 462 kts | 129° |
| 2026-05-06 18:40 | 39.62084 | -1.31248 | 31954 ft | 469 kts | 127° |
| 2026-05-06 18:40 | 39.58749 | -1.23902 | 31957 ft | 473 kts | 125° |
| 2026-05-06 18:41 | 39.55543 | -1.16321 | 31957 ft | 473 kts | 127° |
| 2026-05-06 18:41 | 39.52249 | -1.08918 | 31956 ft | 476 kts | 125° |
| 2026-05-06 18:42 | 39.48981 | -1.01384 | 31951 ft | 477 kts | 127° |
| 2026-05-06 18:42 | 39.45689 | -0.93912 | 31947 ft | 480 kts | 126° |
| 2026-05-06 18:43 | 39.42388 | -0.86400 | 31939 ft | 480 kts | 127° |
| 2026-05-06 18:43 | 39.39097 | -0.78866 | 31933 ft | 482 kts | 126° |
| 2026-05-06 18:44 | 39.35779 | -0.71431 | 31934 ft | 482 kts | 127° |
| 2026-05-06 18:44 | 39.32459 | -0.63874 | 31935 ft | 484 kts | 126° |
| 2026-05-06 18:45 | 39.29903 | -0.55650 | 31936 ft | 498 kts | 111° |
| 2026-05-06 18:45 | 39.28841 | -0.46735 | 31932 ft | 509 kts | 96° |
| 2026-05-06 18:46 | 39.29177 | -0.37581 | 31928 ft | 513 kts | 89° |
| 2026-05-06 18:46 | 39.29546 | -0.29865 | 31928 ft | 513 kts | 89° |
| 2026-05-06 18:47 | 39.30136 | -0.19133 | 31927 ft | 512 kts | 90° |
| 2026-05-06 18:47 | 39.30501 | -0.11512 | 31922 ft | 512 kts | 89° |
| 2026-05-06 18:48 | 39.30983 | -0.02345 | 31922 ft | 511 kts | 90° |
| 2026-05-06 18:48 | 39.31432 | 0.06884 | 31922 ft | 511 kts | 89° |
| 2026-05-06 18:49 | 39.31879 | 0.16045 | 31921 ft | 511 kts | 90° |
| 2026-05-06 18:49 | 39.32096 | 0.20602 | 31481 ft | 503 kts | 89° |
| 2026-05-06 18:49 | 39.32323 | 0.25054 | 30972 ft | 491 kts | 89° |
| 2026-05-06 18:49 | 39.32525 | 0.29409 | 30476 ft | 480 kts | 90° |
| 2026-05-06 18:50 | 39.32718 | 0.33678 | 29975 ft | 472 kts | 90° |
| 2026-05-06 18:50 | 39.32922 | 0.37874 | 29405 ft | 465 kts | 89° |
| 2026-05-06 18:50 | 39.33114 | 0.42008 | 28845 ft | 458 kts | 90° |
| 2026-05-06 18:50 | 39.33294 | 0.46085 | 28292 ft | 452 kts | 89° |
| 2026-05-06 18:51 | 39.33483 | 0.50110 | 27757 ft | 447 kts | 89° |
| 2026-05-06 18:51 | 39.33666 | 0.54097 | 27231 ft | 441 kts | 89° |
| 2026-05-06 18:51 | 39.33834 | 0.58042 | 26714 ft | 441 kts | 89° |
| 2026-05-06 18:51 | 39.34010 | 0.62067 | 26106 ft | 445 kts | 89° |
| 2026-05-06 18:52 | 39.34198 | 0.66072 | 25500 ft | 448 kts | 88° |
| 2026-05-06 18:52 | 39.34372 | 0.70102 | 24903 ft | 450 kts | 89° |
| 2026-05-06 18:52 | 39.34543 | 0.74199 | 24311 ft | 451 kts | 88° |
| 2026-05-06 18:52 | 39.34727 | 0.78248 | 23736 ft | 451 kts | 88° |
| 2026-05-06 18:53 | 39.34900 | 0.82280 | 23104 ft | 450 kts | 88° |
| 2026-05-06 18:53 | 39.35065 | 0.86300 | 22438 ft | 447 kts | 88° |
| 2026-05-06 18:53 | 39.35247 | 0.90343 | 21774 ft | 441 kts | 87° |
| 2026-05-06 18:53 | 39.35413 | 0.94367 | 21113 ft | 435 kts | 88° |
| 2026-05-06 18:54 | 39.35560 | 0.98154 | 20497 ft | 430 kts | 88° |
| 2026-05-06 18:54 | 39.35727 | 1.01993 | 19883 ft | 426 kts | 87° |
| 2026-05-06 18:54 | 39.35904 | 1.05866 | 19266 ft | 422 kts | 86° |
| 2026-05-06 18:54 | 39.36296 | 1.09641 | 18665 ft | 419 kts | 79° |
| 2026-05-06 18:55 | 39.36864 | 1.13316 | 18057 ft | 415 kts | 79° |
| 2026-05-06 18:55 | 39.37315 | 1.16984 | 17395 ft | 412 kts | 83° |
| 2026-05-06 18:55 | 39.37600 | 1.20573 | 16762 ft | 408 kts | 84° |
| 2026-05-06 18:55 | 39.37978 | 1.24195 | 16125 ft | 405 kts | 81° |
| 2026-05-06 18:56 | 39.38410 | 1.27772 | 15497 ft | 401 kts | 83° |
| 2026-05-06 18:56 | 39.38592 | 1.31344 | 14885 ft | 395 kts | 88° |
| 2026-05-06 18:56 | 39.38721 | 1.34869 | 14284 ft | 390 kts | 85° |
| 2026-05-06 18:56 | 39.39035 | 1.38323 | 13739 ft | 384 kts | 82° |
| 2026-05-06 18:57 | 39.39353 | 1.41713 | 13209 ft | 377 kts | 85° |
| 2026-05-06 18:57 | 39.39533 | 1.45063 | 12683 ft | 371 kts | 86° |
| 2026-05-06 18:57 | 39.39735 | 1.48369 | 12088 ft | 367 kts | 84° |
| 2026-05-06 18:57 | 39.40019 | 1.51612 | 11466 ft | 357 kts | 83° |
| 2026-05-06 18:58 | 39.40243 | 1.54698 | 10842 ft | 335 kts | 85° |
| 2026-05-06 18:58 | 39.40412 | 1.57620 | 10225 ft | 318 kts | 84° |
| 2026-05-06 18:58 | 39.40622 | 1.60400 | 9601 ft | 304 kts | 83° |
| 2026-05-06 18:58 | 39.40829 | 1.63112 | 8927 ft | 294 kts | 84° |
| 2026-05-06 18:59 | 39.40996 | 1.65712 | 8279 ft | 286 kts | 84° |
| 2026-05-06 18:59 | 39.41171 | 1.68217 | 7926 ft | 270 kts | 84° |
| 2026-05-06 18:59 | 39.41345 | 1.70611 | 7527 ft | 258 kts | 84° |
| 2026-05-06 18:59 | 39.41496 | 1.72881 | 7139 ft | 249 kts | 85° |
| 2026-05-06 19:00 | 39.41653 | 1.75076 | 6769 ft | 242 kts | 85° |
| 2026-05-06 19:00 | 39.41802 | 1.77251 | 6396 ft | 244 kts | 85° |
| 2026-05-06 19:00 | 39.41949 | 1.79444 | 6014 ft | 246 kts | 85° |
| 2026-05-06 19:00 | 39.42054 | 1.80905 | 5764 ft | 247 kts | 85° |
| 2026-05-06 19:01 | 39.42255 | 1.83884 | 5265 ft | 249 kts | 85° |
| 2026-05-06 19:01 | 39.42408 | 1.86095 | 5064 ft | 242 kts | 85° |
| 2026-05-06 19:01 | 39.42556 | 1.88237 | 5008 ft | 231 kts | 86° |
| 2026-05-06 19:01 | 39.42691 | 1.90300 | 5002 ft | 230 kts | 85° |
| 2026-05-06 19:02 | 39.42836 | 1.92362 | 4999 ft | 230 kts | 85° |
| 2026-05-06 19:02 | 39.42972 | 1.94425 | 4996 ft | 232 kts | 86° |
| 2026-05-06 19:02 | 39.43113 | 1.96527 | 5000 ft | 237 kts | 85° |
| 2026-05-06 19:02 | 39.43260 | 1.98656 | 5009 ft | 241 kts | 86° |
| 2026-05-06 19:03 | 39.43401 | 2.00845 | 5012 ft | 244 kts | 85° |
| 2026-05-06 19:03 | 39.43555 | 2.03074 | 5016 ft | 245 kts | 85° |
| 2026-05-06 19:03 | 39.43700 | 2.05282 | 5008 ft | 247 kts | 86° |
| 2026-05-06 19:03 | 39.43846 | 2.07483 | 5012 ft | 248 kts | 85° |
| 2026-05-06 19:04 | 39.43999 | 2.09754 | 5017 ft | 248 kts | 86° |
| 2026-05-06 19:04 | 39.44138 | 2.11933 | 5016 ft | 249 kts | 86° |
| 2026-05-06 19:04 | 39.44289 | 2.14164 | 5019 ft | 249 kts | 85° |
| 2026-05-06 19:04 | 39.44437 | 2.16427 | 5012 ft | 250 kts | 86° |
| 2026-05-06 19:05 | 39.44580 | 2.18668 | 5013 ft | 250 kts | 86° |
| 2026-05-06 19:05 | 39.44732 | 2.20906 | 5014 ft | 250 kts | 86° |
| 2026-05-06 19:05 | 39.44873 | 2.23118 | 5013 ft | 250 kts | 86° |
| 2026-05-06 19:05 | 39.45019 | 2.25390 | 5012 ft | 250 kts | 86° |
| 2026-05-06 19:06 | 39.45168 | 2.27628 | 5010 ft | 250 kts | 86° |
| 2026-05-06 19:06 | 39.45309 | 2.29892 | 4809 ft | 251 kts | 86° |
| 2026-05-06 19:06 | 39.45405 | 2.31336 | 4641 ft | 243 kts | 86° |
| 2026-05-06 19:06 | 39.45506 | 2.32856 | 4458 ft | 236 kts | 86° |
| 2026-05-06 19:07 | 39.45635 | 2.34933 | 4196 ft | 228 kts | 86° |
| 2026-05-06 19:07 | 39.45765 | 2.36968 | 3927 ft | 220 kts | 86° |
| 2026-05-06 19:07 | 39.45894 | 2.38982 | 3659 ft | 212 kts | 86° |
| 2026-05-06 19:07 | 39.46020 | 2.40972 | 3379 ft | 207 kts | 86° |
| 2026-05-06 19:08 | 39.46135 | 2.42791 | 3129 ft | 202 kts | 86° |
| 2026-05-06 19:08 | 39.46247 | 2.44555 | 3047 ft | 190 kts | 86° |
| 2026-05-06 19:08 | 39.46352 | 2.46207 | 3000 ft | 180 kts | 86° |
| 2026-05-06 19:08 | 39.46451 | 2.47845 | 2988 ft | 186 kts | 86° |
| 2026-05-06 19:09 | 39.46563 | 2.49581 | 3009 ft | 191 kts | 86° |
| 2026-05-06 19:09 | 39.46669 | 2.51263 | 3016 ft | 196 kts | 86° |
| 2026-05-06 19:09 | 39.46774 | 2.53036 | 3023 ft | 200 kts | 86° |
| 2026-05-06 19:09 | 39.47095 | 2.54849 | 2898 ft | 209 kts | 67° |
| 2026-05-06 19:10 | 39.47828 | 2.56491 | 2631 ft | 212 kts | 59° |
| 2026-05-06 19:10 | 39.48579 | 2.58105 | 2352 ft | 207 kts | 60° |
| 2026-05-06 19:10 | 39.49315 | 2.59675 | 2075 ft | 202 kts | 59° |
| 2026-05-06 19:10 | 39.50054 | 2.61212 | 1813 ft | 197 kts | 59° |
| 2026-05-06 19:11 | 39.50776 | 2.62743 | 1538 ft | 195 kts | 59° |
| 2026-05-06 19:11 | 39.51474 | 2.64215 | 1279 ft | 193 kts | 59° |
| 2026-05-06 19:11 | 39.52182 | 2.65715 | 1073 ft | 187 kts | 59° |
| 2026-05-06 19:11 | 39.52864 | 2.67127 | 958 ft | 177 kts | 52° |
| 2026-05-06 19:12 | 39.53879 | 2.67820 | 896 ft | 167 kts | 359° |
| 2026-05-06 19:12 | 39.55040 | 2.67460 | 881 ft | 178 kts | 345° |
| 2026-05-06 19:12 | 39.56225 | 2.66900 | 918 ft | 187 kts | 327° |
| 2026-05-06 19:12 | 39.56925 | 2.65451 | 966 ft | 195 kts | 284° |
| 2026-05-06 19:13 | 39.57582 | 2.63965 | 1022 ft | 197 kts | 325° |
| 2026-05-06 19:13 | 39.58935 | 2.63648 | 1093 ft | 199 kts | 17° |
| 2026-05-06 19:13 | 39.59725 | 2.64265 | 1154 ft | 199 kts | 47° |
| 2026-05-06 19:13 | 39.60760 | 2.66241 | 1326 ft | 199 kts | 58° |
| 2026-05-06 19:14 | 39.61273 | 2.67265 | 1421 ft | 199 kts | 58° |
| 2026-05-06 19:14 | 39.62257 | 2.69297 | 1588 ft | 200 kts | 58° |
| 2026-05-06 19:14 | 39.62755 | 2.70335 | 1647 ft | 202 kts | 59° |
| 2026-05-06 19:14 | 39.63510 | 2.71936 | 1640 ft | 207 kts | 64° |
| 2026-05-06 19:15 | 39.63656 | 2.73784 | 1643 ft | 210 kts | 108° |
| 2026-05-06 19:15 | 39.62725 | 2.75227 | 1645 ft | 214 kts | 147° |
| 2026-05-06 19:15 | 39.61428 | 2.76149 | 1641 ft | 201 kts | 151° |
| 2026-05-06 19:15 | 39.60316 | 2.76921 | 1737 ft | 169 kts | 151° |
| 2026-05-06 19:16 | 39.59352 | 2.77563 | 1635 ft | 132 kts | 152° |
| 2026-05-06 19:16 | 39.58566 | 2.78065 | 1442 ft | 118 kts | 154° |
| 2026-05-06 19:16 | 39.57826 | 2.78310 | 1095 ft | 108 kts | 177° |
| 2026-05-06 19:16 | 39.57087 | 2.78122 | 685 ft | 107 kts | 201° |
| 2026-05-06 19:17 | 39.56469 | 2.77612 | 366 ft | 105 kts | 222° |
| 2026-05-06 19:17 | 39.55968 | 2.76916 | 162 ft | 105 kts | 232° |
| 2026-05-06 19:17 | 39.55539 | 2.76150 | 40 ft | 103 kts | 239° |
| 2026-05-06 19:17 | 39.55190 | 2.75406 | 24 ft | 83 kts | 239° |
| 2026-05-06 19:18 | 39.54914 | 2.74848 | 25 ft | 66 kts | 238° |
| 2026-05-06 19:18 | 39.54704 | 2.74387 | 31 ft | 56 kts | 239° |
| 2026-05-06 19:18 | 39.54506 | 2.73974 | 29 ft | 50 kts | 238° |
| 2026-05-06 19:18 | 39.54328 | 2.73605 | 27 ft | 46 kts | 237° |
| 2026-05-06 19:19 | 39.54171 | 2.73271 | 29 ft | 36 kts | 238° |
| 2026-05-06 19:19 | 39.54108 | 2.73083 | 30 ft | 17 kts | 272° |
| 2026-05-06 19:19 | 39.54133 | 2.72939 | 30 ft | 17 kts | 304° |
| 2026-05-06 19:19 | 39.54216 | 2.72865 | 30 ft | 12 kts | 284° |
| 2026-05-06 19:20 | 39.54177 | 2.72764 | 30 ft | 12 kts | 238° |
| 2026-05-06 19:20 | 39.54160 | 2.72750 | 30 ft | 4 kts | 147° |
| 2026-05-06 19:20 | 39.54156 | 2.72769 | 30 ft | 3 kts | 85° |
| 2026-05-06 19:20 | 39.54153 | 2.72780 | 30 ft | 1 kts | 141° |
| 2026-05-06 19:21 | 39.54149 | 2.72784 | 30 ft | 0 kts | 142° |